Time;durP1;ratioP1;P1;durP2;ratioP2;P2;SDS_P1;SDS_P2;PMS_P1;PMS_P2;Temp;Humidity;BMP_temperature;BMP_pressure;BME280_temperature;BME280_humidity;BME280_pressure;Samples;Min_cycle;Max_cycle;Signal;HPM_P1;HPM_P2
2023/06/23 00:00:54;;;;;;;16.65;4.72;;;;;;;15.26;56.80;98750.84;4953993;28;20464;-65
2023/06/23 00:03:19;;;;;;;8.70;5.05;;;;;;;15.33;56.44;98755.59;4956204;28;20050;-66
2023/06/23 00:05:44;;;;;;;7.38;4.22;;;;;;;15.37;56.27;98732.78;4955815;28;20050;-66
2023/06/23 00:08:10;;;;;;;7.97;3.90;;;;;;;15.43;56.01;98732.97;4955783;28;20054;-67
2023/06/23 00:10:35;;;;;;;7.40;4.07;;;;;;;15.39;55.94;98725.41;4956026;28;20050;-67
2023/06/23 00:13:02;;;;;;;10.50;3.72;;;;;;;15.32;56.21;98719.00;4955788;28;20075;-67
2023/06/23 00:15:28;;;;;;;4.97;4.45;;;;;;;15.30;56.54;98724.53;4954767;28;20501;-67
2023/06/23 00:17:53;;;;;;;8.65;4.05;;;;;;;15.34;56.51;98719.69;4954376;28;20049;-66
2023/06/23 00:20:19;;;;;;;6.15;4.15;;;;;;;15.37;56.34;98708.59;4956175;28;20058;-66
2023/06/23 00:22:44;;;;;;;6.03;4.03;;;;;;;15.42;56.40;98707.13;4953957;28;20065;-64
2023/06/23 00:25:12;;;;;;;6.00;4.10;;;;;;;15.43;56.49;98708.81;4955272;28;20050;-65
2023/06/23 00:27:41;;;;;;;6.72;4.20;;;;;;;15.49;56.38;98710.00;4954169;28;20501;-66
2023/06/23 00:30:11;;;;;;;7.85;4.57;;;;;;;15.46;56.10;98708.47;4953543;28;20050;-66
2023/06/23 00:32:36;;;;;;;5.72;4.40;;;;;;;15.42;57.27;98701.75;4955785;28;20046;-66
2023/06/23 00:35:02;;;;;;;9.77;4.30;;;;;;;15.45;57.16;98705.97;4970734;28;20493;-67
2023/06/23 00:37:30;;;;;;;7.88;4.63;;;;;;;15.48;57.01;98703.78;4955682;28;20046;-66
2023/06/23 00:39:56;;;;;;;5.45;3.72;;;;;;;15.54;57.20;98704.97;4937602;28;20046;-65
2023/06/23 00:42:21;;;;;;;5.90;3.75;;;;;;;15.58;57.47;98709.88;4968656;28;20053;-66
2023/06/23 00:44:47;;;;;;;10.38;4.05;;;;;;;15.62;57.29;98705.03;4952948;28;20050;-67
2023/06/23 00:47:15;;;;;;;9.35;4.32;;;;;;;15.65;56.85;98702.00;4955582;28;20050;-66
2023/06/23 00:49:41;;;;;;;5.70;4.20;;;;;;;15.65;56.72;98706.53;4956633;28;20043;-67
2023/06/23 00:52:07;;;;;;;9.77;4.40;;;;;;;15.68;56.83;98711.59;4959109;28;20046;-65
2023/06/23 00:54:35;;;;;;;6.75;4.63;;;;;;;15.72;56.52;98702.19;4959209;28;20038;-65
2023/06/23 00:57:03;;;;;;;9.13;4.50;;;;;;;15.69;57.04;98707.91;4974167;28;20045;-66
2023/06/23 00:59:29;;;;;;;7.03;4.90;;;;;;;15.63;56.82;98698.66;4959083;28;20042;-66
2023/06/23 01:01:59;;;;;;;6.85;4.45;;;;;;;15.64;57.39;98704.88;4941469;28;20050;-66
2023/06/23 01:04:25;;;;;;;6.93;3.97;;;;;;;15.64;57.01;98704.88;4974254;28;20041;-66
2023/06/23 01:06:59;;;;;;;5.57;4.20;;;;;;;15.71;57.19;98709.41;4953856;28;20050;-66
2023/06/23 01:09:36;;;;;;;8.20;4.70;;;;;;;15.75;56.93;98697.31;4958640;28;20398;-66
2023/06/23 01:12:13;;;;;;;6.47;4.50;;;;;;;15.72;57.22;98708.41;4973268;28;20038;-67
2023/06/23 01:15:08;;;;;;;7.75;4.50;;;;;;;15.75;57.46;98712.63;4967818;28;20081;-67
2023/06/23 01:17:43;;;;;;;5.93;4.10;;;;;;;15.76;56.61;98708.91;4957450;28;20042;-66
2023/06/23 01:20:21;;;;;;;;;;;;;;;15.91;55.98;98712.66;4957729;28;20038;-65
2023/06/23 01:23:00;;;;;;;10.10;4.45;;;;;;;15.81;56.56;98706.56;4957245;28;19922;-66
2023/06/23 01:25:51;;;;;;;8.55;4.07;;;;;;;15.80;56.96;98700.34;4944902;28;20050;-66
2023/06/23 01:29:14;;;;;;;6.68;4.75;;;;;;;15.79;57.12;98703.22;4958350;28;20053;-65
2023/06/23 01:31:49;;;;;;;10.63;5.82;;;;;;;15.69;56.71;98708.72;4917166;29;20410;-66
2023/06/23 01:34:23;;;;;;;5.68;4.22;;;;;;;15.58;57.32;98712.56;4917231;29;20051;-66
2023/06/23 01:37:00;;;;;;;7.27;4.87;;;;;;;15.58;57.46;98717.94;4916821;29;20051;-65
2023/06/23 01:39:30;;;;;;;11.10;4.40;;;;;;;15.52;57.49;98717.72;4905229;29;20291;-65
2023/06/23 01:42:30;;;;;;;5.60;4.25;;;;;;;15.66;57.35;98713.59;4915638;29;20062;-64
2023/06/23 01:44:59;;;;;;;11.85;4.43;;;;;;;15.64;58.13;98715.59;4869737;29;20701;-64
2023/06/23 01:47:33;;;;;;;5.47;4.18;;;;;;;15.58;57.79;98709.88;4885129;29;20410;-65
2023/06/23 01:50:04;;;;;;;7.60;4.40;;;;;;;15.47;57.46;98718.19;4916748;29;20051;-65
2023/06/23 01:52:33;;;;;;;8.82;4.47;;;;;;;15.40;58.22;98714.50;4916795;29;20047;-65
2023/06/23 01:55:00;;;;;;;4.45;3.75;;;;;;;15.42;58.11;98717.88;4898718;29;20048;-65
2023/06/23 01:57:29;;;;;;;9.32;4.38;;;;;;;15.48;58.58;98722.56;4889355;29;20803;-64
2023/06/23 01:59:55;;;;;;;12.55;4.75;;;;;;;15.54;58.47;98721.09;4897123;29;20043;-64
2023/06/23 02:02:23;;;;;;;8.27;4.03;;;;;;;15.59;57.96;98722.31;4925730;28;20061;-65
2023/06/23 02:04:50;;;;;;;7.25;4.40;;;;;;;15.67;58.28;98723.34;4939025;28;20051;-67
2023/06/23 02:07:17;;;;;;;9.30;4.95;;;;;;;15.69;57.22;98724.84;4966115;28;20065;-67
2023/06/23 02:09:45;;;;;;;6.85;4.40;;;;;;;15.70;57.89;98734.59;4957130;28;20053;-66
2023/06/23 02:12:12;;;;;;;5.63;4.38;;;;;;;15.57;58.75;98740.47;4957781;28;20042;-64
2023/06/23 02:14:40;;;;;;;7.80;4.53;;;;;;;15.48;59.72;98722.56;4956833;28;20076;-65
2023/06/23 02:17:10;;;;;;;6.20;4.22;;;;;;;15.54;59.04;98731.84;4973098;28;20042;-65
2023/06/23 02:19:45;;;;;;;7.47;4.80;;;;;;;15.64;58.85;98729.03;4969633;28;20042;-65
2023/06/23 02:22:14;;;;;;;7.60;4.50;;;;;;;15.52;58.71;98715.88;4991876;28;20050;-68
2023/06/23 02:24:40;;;;;;;7.68;4.50;;;;;;;15.48;58.32;98717.19;4976967;28;20412;-65
2023/06/23 02:27:07;;;;;;;8.95;4.93;;;;;;;15.41;59.29;98709.97;4992413;28;20555;-66
2023/06/23 02:29:35;;;;;;;9.07;5.00;;;;;;;15.42;59.21;98709.81;4975783;28;20053;-67
2023/06/23 02:32:02;;;;;;;8.75;4.57;;;;;;;15.42;59.31;98692.84;4967005;28;20498;-69
2023/06/23 02:34:27;;;;;;;9.50;4.45;;;;;;;15.49;60.12;98680.44;4939709;28;20061;-69
2023/06/23 02:36:58;;;;;;;8.23;4.95;;;;;;;15.58;60.02;98687.53;4957276;28;20042;-68
2023/06/23 02:39:27;;;;;;;8.80;5.28;;;;;;;15.59;59.39;98690.06;4972693;28;20049;-64
2023/06/23 02:41:56;;;;;;;10.68;5.78;;;;;;;15.58;60.02;98699.13;4940217;28;20054;-68
2023/06/23 02:44:29;;;;;;;7.13;5.07;;;;;;;15.65;60.10;98701.19;4955605;28;20058;-63
2023/06/23 02:46:57;;;;;;;7.55;5.07;;;;;;;15.71;60.42;98695.97;4971264;28;20042;-66
2023/06/23 02:49:27;;;;;;;9.35;4.43;;;;;;;15.81;60.18;98707.41;4956871;28;20043;-65
2023/06/23 02:51:58;;;;;;;10.48;5.72;;;;;;;15.89;60.40;98690.47;4955530;28;20061;-65
2023/06/23 02:54:24;;;;;;;6.88;4.70;;;;;;;15.96;60.50;98700.38;4955468;28;20046;-65
2023/06/23 02:56:53;;;;;;;6.22;4.72;;;;;;;16.05;60.37;98698.53;4956682;28;20500;-64
2023/06/23 02:59:21;;;;;;;9.02;5.80;;;;;;;16.13;59.63;98695.88;4950589;28;20042;-65
2023/06/23 03:01:52;;;;;;;8.10;4.85;;;;;;;16.22;59.39;98705.59;4938086;28;20417;-67
2023/06/23 03:04:18;;;;;;;5.15;4.35;;;;;;;16.33;60.07;98710.66;4956385;28;20421;-65
2023/06/23 03:06:44;;;;;;;10.75;7.15;;;;;;;16.45;59.59;98716.53;4956910;28;20037;-68
2023/06/23 03:09:11;;;;;;;7.78;5.18;;;;;;;16.57;59.27;98719.72;4955398;28;20047;-66
2023/06/23 03:11:37;;;;;;;9.13;6.53;;;;;;;16.71;58.75;98710.94;4971442;28;20042;-66
2023/06/23 03:14:06;;;;;;;9.13;5.55;;;;;;;16.86;58.74;98709.25;4956168;28;20057;-66
2023/06/23 03:16:39;;;;;;;9.63;5.65;;;;;;;16.99;58.03;98706.03;4953769;28;20046;-66
2023/06/23 03:19:29;;;;;;;7.07;5.10;;;;;;;17.17;58.10;98701.22;4969722;28;20042;-67
2023/06/23 03:22:07;;;;;;;7.65;5.53;;;;;;;17.20;57.89;98711.66;4954570;28;20065;-68
2023/06/23 03:24:37;;;;;;;9.35;5.65;;;;;;;17.06;57.69;98712.38;4938345;28;20058;-68
2023/06/23 03:27:06;;;;;;;9.88;4.97;;;;;;;17.01;58.11;98710.22;4955754;28;20049;-67
2023/06/23 03:29:36;;;;;;;9.52;5.70;;;;;;;16.99;58.50;98703.31;4955700;28;20042;-69
2023/06/23 03:32:04;;;;;;;7.80;6.05;;;;;;;16.92;59.00;98705.88;4956533;28;20057;-69
2023/06/23 03:34:39;;;;;;;10.30;6.25;;;;;;;16.93;59.36;98704.84;4956348;28;20038;-69
2023/06/23 03:37:07;;;;;;;13.13;6.38;;;;;;;16.78;59.05;98692.28;4952468;28;20054;-70
2023/06/23 03:39:38;;;;;;;10.32;6.45;;;;;;;16.73;59.28;98689.25;4937188;28;20043;-69
2023/06/23 03:42:05;;;;;;;10.82;6.93;;;;;;;16.68;60.14;98689.78;4956110;28;20046;-69
2023/06/23 03:44:51;;;;;;;13.18;6.47;;;;;;;16.78;60.26;98682.34;4971560;28;20492;-70
2023/06/23 03:47:19;;;;;;;13.20;7.85;;;;;;;16.70;60.37;98679.69;4953934;28;20083;-69
2023/06/23 03:49:55;;;;;;;8.57;5.97;;;;;;;16.74;60.83;98677.47;4971214;28;20042;-71
2023/06/23 03:52:23;;;;;;;11.10;5.97;;;;;;;16.60;62.27;98682.50;4956213;28;20065;-71
2023/06/23 03:54:52;;;;;;;16.25;6.95;;;;;;;16.56;62.85;98683.06;4956098;28;20061;-70
2023/06/23 03:57:20;;;;;;;11.88;7.05;;;;;;;16.52;63.11;98684.38;4954318;28;20062;-70
2023/06/23 03:59:47;;;;;;;9.65;6.55;;;;;;;16.34;63.05;98680.06;4956085;28;20050;-70
2023/06/23 04:02:16;;;;;;;10.40;5.80;;;;;;;16.10;63.77;98679.22;4956060;28;20042;-70
2023/06/23 04:04:43;;;;;;;10.10;6.18;;;;;;;15.90;66.02;98682.25;4971107;28;20073;-70
2023/06/23 04:07:09;;;;;;;8.82;6.13;;;;;;;15.84;66.42;98696.31;4956091;28;20049;-71
2023/06/23 04:09:39;;;;;;;15.27;6.70;;;;;;;15.88;68.02;98695.00;4938353;28;20528;-70
2023/06/23 04:12:06;;;;;;;12.93;6.97;;;;;;;15.98;68.65;98694.84;4954764;28;20053;-70
2023/06/23 04:14:32;;;;;;;12.75;6.70;;;;;;;16.07;69.00;98698.38;4954058;28;20050;-71
2023/06/23 04:16:59;;;;;;;15.13;7.07;;;;;;;16.11;68.81;98697.88;4955896;28;20046;-70
2023/06/23 04:19:27;;;;;;;15.57;7.25;;;;;;;16.17;69.43;98680.22;4955853;28;20489;-71
2023/06/23 04:21:54;;;;;;;15.32;7.22;;;;;;;16.19;68.66;98689.81;4955917;28;20065;-70
2023/06/23 04:24:22;;;;;;;13.32;8.05;;;;;;;16.23;68.35;98680.41;4957480;28;20058;-70
2023/06/23 04:26:52;;;;;;;12.20;6.88;;;;;;;16.21;68.33;98682.41;4961047;28;20053;-70
2023/06/23 04:29:19;;;;;;;10.88;7.53;;;;;;;16.16;69.04;98683.91;4960946;28;20046;-69
2023/06/23 04:31:48;;;;;;;12.32;6.95;;;;;;;16.15;67.82;98676.84;4962303;28;20053;-70
2023/06/23 04:34:13;;;;;;;16.98;8.60;;;;;;;16.11;67.57;98672.84;4977550;28;20560;-70
2023/06/23 04:36:48;;;;;;;15.57;7.80;;;;;;;15.98;67.80;98678.72;4960323;28;20456;-71
2023/06/23 04:39:28;;;;;;;10.38;7.35;;;;;;;15.87;69.33;98679.03;4962352;28;20049;-72
2023/06/23 04:42:03;;;;;;;22.40;8.48;;;;;;;15.94;70.48;98680.88;4962767;28;20489;-71
2023/06/23 04:44:32;;;;;;;14.40;8.32;;;;;;;16.10;70.56;98690.81;4977396;28;20050;-70
2023/06/23 04:47:01;;;;;;;10.63;7.43;;;;;;;16.27;70.40;98691.63;4962165;28;20053;-71
2023/06/23 04:49:29;;;;;;;13.48;7.20;;;;;;;16.40;70.76;98694.66;4962462;28;20054;-71
2023/06/23 04:51:58;;;;;;;14.32;8.32;;;;;;;16.47;69.79;98686.78;4963442;28;20049;-72
2023/06/23 04:54:39;;;;;;;13.20;7.43;;;;;;;16.51;69.72;98671.94;4962129;28;20042;-73
2023/06/23 04:57:21;;;;;;;14.70;8.57;;;;;;;16.48;69.82;98681.19;4959958;28;20409;-69
2023/06/23 04:59:52;;;;;;;13.80;7.78;;;;;;;16.49;69.36;98674.81;4962332;28;20054;-71
2023/06/23 05:02:19;;;;;;;13.60;9.07;;;;;;;16.45;69.43;98683.41;4962045;28;20049;-70
2023/06/23 05:04:47;;;;;;;16.27;8.68;;;;;;;16.33;69.84;98685.59;4962039;28;20046;-70
2023/06/23 05:07:14;;;;;;;14.57;8.68;;;;;;;16.12;69.68;98683.44;4960705;28;20053;-71
2023/06/23 05:09:42;;;;;;;13.98;9.40;;;;;;;15.85;72.58;98684.56;4962034;28;20047;-71
2023/06/23 05:12:10;;;;;;;15.73;9.70;;;;;;;15.71;73.07;98677.16;4961756;28;20042;-71
2023/06/23 05:14:38;;;;;;;18.23;10.15;;;;;;;15.57;74.61;98684.03;4961930;28;20049;-71
2023/06/23 05:17:08;;;;;;;14.07;9.90;;;;;;;15.49;73.70;98675.91;4961980;28;20408;-71
2023/06/23 05:19:37;;;;;;;17.88;9.73;;;;;;;15.44;74.99;98683.63;4961920;28;20046;-70
2023/06/23 05:22:08;;;;;;;20.98;10.65;;;;;;;15.39;75.04;98675.22;4961860;28;20049;-71
2023/06/23 05:24:37;;;;;;;14.88;9.65;;;;;;;15.40;76.74;98678.75;4961307;28;20055;-70
2023/06/23 05:27:07;;;;;;;17.52;10.65;;;;;;;15.46;76.33;98670.03;4961902;28;20046;-71
2023/06/23 05:29:36;;;;;;;15.18;11.13;;;;;;;15.60;76.34;98669.41;4961850;28;20049;-71
2023/06/23 05:32:06;;;;;;;14.98;10.02;;;;;;;15.70;78.16;98661.19;4961886;28;20054;-71
2023/06/23 05:34:32;;;;;;;16.50;9.40;;;;;;;15.87;76.68;98668.28;4960062;28;20393;-72
2023/06/23 05:37:01;;;;;;;13.73;9.90;;;;;;;16.05;75.59;98674.34;4958180;28;20046;-73
2023/06/23 05:39:28;;;;;;;17.23;10.52;;;;;;;16.13;75.09;98676.19;4957476;28;20057;-73
2023/06/23 05:41:54;;;;;;;16.08;11.25;;;;;;;16.17;76.36;98662.22;4958529;28;20046;-71
2023/06/23 05:44:19;;;;;;;18.77;10.90;;;;;;;16.28;75.57;98669.13;4958662;28;20042;-72
2023/06/23 05:46:47;;;;;;;16.10;10.68;;;;;;;16.39;74.85;98673.31;4958583;28;20049;-72
2023/06/23 05:49:17;;;;;;;13.43;9.93;;;;;;;16.40;75.49;98675.81;4958557;28;20050;-73
2023/06/23 05:51:44;;;;;;;17.40;9.75;;;;;;;16.45;76.07;98673.47;4957505;28;20050;-73
2023/06/23 05:54:11;;;;;;;13.93;9.95;;;;;;;16.52;76.75;98669.09;4958168;28;20050;-71
2023/06/23 05:56:42;;;;;;;17.25;10.18;;;;;;;16.64;76.57;98673.13;4973614;28;20046;-72
2023/06/23 05:59:13;;;;;;;15.88;10.80;;;;;;;16.70;75.84;98668.94;4958471;28;20042;-71
2023/06/23 06:01:42;;;;;;;15.73;11.00;;;;;;;16.63;75.42;98671.44;4958443;28;20046;-71
2023/06/23 06:04:12;;;;;;;17.80;10.93;;;;;;;16.42;77.23;98667.59;4957123;28;20504;-72
2023/06/23 06:06:39;;;;;;;22.08;11.63;;;;;;;16.29;78.90;98666.25;4958468;28;20097;-71
2023/06/23 06:09:07;;;;;;;18.73;12.80;;;;;;;16.31;79.74;98663.41;4957237;28;20049;-72
2023/06/23 06:11:33;;;;;;;16.75;10.70;;;;;;;16.30;79.63;98659.03;4958167;28;20057;-72
2023/06/23 06:14:01;;;;;;;15.77;11.63;;;;;;;16.32;80.51;98657.03;4957904;28;20057;-70
2023/06/23 06:16:28;;;;;;;16.63;11.30;;;;;;;16.40;80.27;98656.16;4956946;28;20050;-70
2023/06/23 06:18:55;;;;;;;17.58;12.00;;;;;;;16.55;79.49;98644.53;4957220;28;20046;-70
2023/06/23 06:21:22;;;;;;;17.58;12.57;;;;;;;16.76;80.30;98651.25;4958195;28;20050;-73
2023/06/23 06:23:50;;;;;;;16.30;12.32;;;;;;;16.88;80.38;98648.00;4958135;28;20754;-72
2023/06/23 06:26:18;;;;;;;17.10;11.80;;;;;;;16.96;80.15;98645.28;4957857;28;20046;-71
2023/06/23 06:28:46;;;;;;;16.63;11.10;;;;;;;17.04;79.73;98637.16;4957611;28;20386;-72
2023/06/23 06:31:12;;;;;;;16.52;11.73;;;;;;;17.08;80.39;98643.03;4956526;28;20421;-73
2023/06/23 06:33:40;;;;;;;16.73;12.90;;;;;;;17.19;80.32;98637.25;4957942;28;20050;-72
2023/06/23 06:36:07;;;;;;;18.15;11.23;;;;;;;17.26;80.86;98632.03;4955904;28;20525;-73
2023/06/23 06:38:35;;;;;;;21.35;12.73;;;;;;;17.29;80.20;98634.34;4956440;28;20061;-72
2023/06/23 06:41:05;;;;;;;17.95;12.35;;;;;;;17.34;80.56;98635.50;4972757;28;20046;-72
2023/06/23 06:43:31;;;;;;;14.93;10.90;;;;;;;17.35;78.92;98628.25;4972516;28;20409;-70
2023/06/23 06:46:00;;;;;;;14.15;11.35;;;;;;;17.33;78.70;98628.44;4955919;28;20504;-74
2023/06/23 06:48:27;;;;;;;13.25;10.80;;;;;;;17.36;79.12;98641.56;4957163;28;20038;-73
2023/06/23 06:50:55;;;;;;;13.73;10.40;;;;;;;17.47;78.63;98631.41;4957479;28;20050;-72
2023/06/23 06:53:20;;;;;;;15.55;10.48;;;;;;;17.61;78.45;98623.34;4955639;28;20062;-72
2023/06/23 06:55:47;;;;;;;14.32;10.88;;;;;;;17.89;79.42;98621.00;4957363;28;20411;-73
2023/06/23 06:58:12;;;;;;;13.15;11.13;;;;;;;18.17;78.58;98612.34;4957287;28;20042;-72
2023/06/23 07:00:38;;;;;;;17.27;12.13;;;;;;;18.35;78.23;98624.47;4957141;28;20041;-74
2023/06/23 07:03:04;;;;;;;17.60;12.43;;;;;;;18.45;77.28;98625.03;4955868;28;20046;-73
2023/06/23 07:05:29;;;;;;;14.23;11.63;;;;;;;18.51;77.35;98620.75;4955272;28;20061;-73
2023/06/23 07:07:54;;;;;;;15.75;11.43;;;;;;;18.52;77.11;98620.56;4955262;28;20050;-74
2023/06/23 07:10:19;;;;;;;17.25;10.95;;;;;;;18.51;77.31;98615.34;4957012;28;20049;-72
2023/06/23 07:12:45;;;;;;;17.88;11.75;;;;;;;18.47;76.63;98617.59;4955979;28;20489;-73
2023/06/23 07:15:10;;;;;;;15.88;12.18;;;;;;;18.42;76.93;98620.00;4955785;28;20049;-73
2023/06/23 07:17:35;;;;;;;16.52;11.55;;;;;;;18.38;76.84;98616.00;4956830;28;20042;-73
2023/06/23 07:20:00;;;;;;;18.23;11.60;;;;;;;18.37;77.19;98616.19;4971827;28;20045;-71
2023/06/23 07:22:26;;;;;;;16.83;11.43;;;;;;;18.37;77.16;98625.13;4956604;28;20050;-70
2023/06/23 07:24:51;;;;;;;18.65;11.88;;;;;;;18.35;76.34;98616.38;4956452;28;20058;-70
2023/06/23 07:27:18;;;;;;;21.50;12.98;;;;;;;18.24;76.30;98615.97;4956647;28;20504;-69
2023/06/23 07:29:44;;;;;;;21.52;13.10;;;;;;;18.14;76.97;98616.25;4956560;28;20050;-69
2023/06/23 07:32:10;;;;;;;22.27;13.55;;;;;;;18.10;76.91;98620.31;4956685;28;20405;-71
2023/06/23 07:34:35;;;;;;;24.05;15.35;;;;;;;17.95;76.96;98614.88;4955475;28;20046;-69
2023/06/23 07:37:00;;;;;;;20.13;14.25;;;;;;;17.79;77.49;98617.72;4955122;28;20057;-69
2023/06/23 07:39:25;;;;;;;24.40;14.80;;;;;;;17.71;78.41;98618.63;4955330;28;20036;-70
2023/06/23 07:41:51;;;;;;;20.60;14.80;;;;;;;17.64;79.27;98612.25;4970911;28;20054;-70
2023/06/23 07:44:16;;;;;;;24.63;14.80;;;;;;;17.60;79.69;98619.00;4956594;28;20042;-70
2023/06/23 07:46:41;;;;;;;20.80;13.95;;;;;;;17.59;79.29;98603.84;4971426;28;20046;-70
2023/06/23 07:49:06;;;;;;;25.08;13.80;;;;;;;17.63;78.87;98610.59;4956192;28;20048;-69
2023/06/23 07:51:32;;;;;;;17.30;13.32;;;;;;;17.58;78.86;98614.81;4954080;28;20505;-70
2023/06/23 07:53:57;;;;;;;18.45;13.35;;;;;;;17.53;79.62;98615.34;4956081;28;20050;-68
2023/06/23 07:56:22;;;;;;;24.25;14.55;;;;;;;17.50;80.80;98615.69;4956122;28;20048;-67
2023/06/23 07:58:47;;;;;;;19.52;13.35;;;;;;;17.52;81.44;98618.22;4953766;28;20079;-67
2023/06/23 08:01:13;;;;;;;21.33;12.63;;;;;;;17.52;80.35;98616.34;4955760;28;20408;-70
2023/06/23 08:03:38;;;;;;;17.25;12.07;;;;;;;17.54;80.31;98611.63;4955884;28;20386;-68
2023/06/23 08:06:04;;;;;;;17.65;13.38;;;;;;;17.48;80.89;98606.13;4955887;28;20073;-68
2023/06/23 08:08:29;;;;;;;18.85;11.82;;;;;;;17.51;80.20;98598.50;4955858;28;20046;-69
2023/06/23 08:10:54;;;;;;;18.63;13.02;;;;;;;17.45;79.84;98596.53;4954372;28;20054;-68
2023/06/23 08:13:19;;;;;;;19.73;14.70;;;;;;;17.33;79.90;98608.75;4954471;28;20796;-67
2023/06/23 08:15:46;;;;;;;17.42;13.32;;;;;;;17.24;81.12;98613.34;4956145;28;20050;-68
2023/06/23 08:18:12;;;;;;;20.48;12.85;;;;;;;17.17;82.11;98614.19;4970651;28;20049;-67
2023/06/23 08:20:37;;;;;;;15.90;12.95;;;;;;;17.15;81.47;98616.25;4954219;28;20058;-68
2023/06/23 08:23:03;;;;;;;20.27;13.57;;;;;;;17.09;82.00;98611.56;4955345;28;20497;-69
2023/06/23 08:25:28;;;;;;;23.25;15.55;;;;;;;16.98;81.93;98602.84;4953966;28;20061;-68
2023/06/23 08:27:53;;;;;;;18.13;13.07;;;;;;;16.85;82.37;98609.81;4953519;28;20050;-67
2023/06/23 08:30:29;;;;;;;20.73;13.85;;;;;;;16.81;83.50;98608.50;4954555;28;20517;-70
2023/06/23 08:32:55;;;;;;;20.38;15.02;;;;;;;16.70;84.46;98617.78;4954990;28;20421;-67
2023/06/23 08:35:20;;;;;;;19.17;14.25;;;;;;;16.63;85.91;98617.63;4955684;28;20073;-69
2023/06/23 08:37:45;;;;;;;20.98;15.35;;;;;;;16.61;87.02;98616.09;4970976;28;20042;-68
2023/06/23 08:40:11;;;;;;;19.98;15.32;;;;;;;16.63;87.14;98622.16;4955812;28;20046;-68
2023/06/23 08:42:36;;;;;;;22.20;16.48;;;;;;;16.62;87.89;98621.34;4955594;28;20057;-69
2023/06/23 08:45:05;;;;;;;19.13;15.45;;;;;;;16.64;88.32;98610.41;4955341;28;20042;-69
2023/06/23 08:47:37;;;;;;;19.35;15.38;;;;;;;16.77;88.77;98618.78;4970547;28;20057;-69
2023/06/23 08:50:03;;;;;;;22.88;15.25;;;;;;;16.82;88.73;98604.78;4954413;28;20053;-68
2023/06/23 08:52:30;;;;;;;17.95;14.30;;;;;;;16.80;89.44;98610.34;4938465;28;20046;-66
2023/06/23 08:54:56;;;;;;;18.50;14.30;;;;;;;16.85;89.76;98616.03;4955443;28;20042;-67
2023/06/23 08:57:21;;;;;;;19.38;13.50;;;;;;;16.83;89.84;98622.59;4955599;28;20042;-67
2023/06/23 08:59:47;;;;;;;17.83;13.73;;;;;;;16.83;89.44;98618.06;4953855;28;20046;-66
2023/06/23 09:02:12;;;;;;;16.88;14.25;;;;;;;16.77;89.60;98618.78;4955317;28;20421;-68
2023/06/23 09:04:38;;;;;;;19.73;14.93;;;;;;;16.74;89.83;98624.50;4955555;28;20508;-68
2023/06/23 09:07:04;;;;;;;21.70;15.48;;;;;;;16.77;89.76;98621.47;4955429;28;20053;-69
2023/06/23 09:09:29;;;;;;;17.67;13.52;;;;;;;16.78;89.89;98619.63;4955394;28;20046;-68
2023/06/23 09:11:55;;;;;;;20.17;14.52;;;;;;;16.81;89.79;98620.13;4958613;28;20061;-69
2023/06/23 09:14:22;;;;;;;19.08;14.43;;;;;;;16.86;90.35;98616.88;4957334;28;20061;-67
2023/06/23 09:16:48;;;;;;;21.27;15.45;;;;;;;16.87;90.12;98619.41;4957207;28;20061;-67
2023/06/23 09:19:14;;;;;;;20.00;14.75;;;;;;;16.94;90.48;98627.59;4958966;28;20042;-68
2023/06/23 09:21:41;;;;;;;20.40;15.43;;;;;;;16.98;90.71;98624.41;4957365;28;20054;-68
2023/06/23 09:24:07;;;;;;;23.52;17.52;;;;;;;17.05;90.97;98628.06;4973758;28;20058;-70
2023/06/23 09:26:48;;;;;;;20.77;16.58;;;;;;;17.17;91.16;98631.19;4958856;28;20050;-69
2023/06/23 09:29:17;;;;;;;21.48;15.57;;;;;;;17.18;90.93;98632.03;4957125;28;20046;-70
2023/06/23 09:31:43;;;;;;;25.45;16.27;;;;;;;17.19;90.69;98625.66;4958964;28;20474;-69
2023/06/23 09:34:08;;;;;;;27.23;19.42;;;;;;;17.10;90.10;98624.00;4957566;28;20053;-70
2023/06/23 09:36:34;;;;;;;30.05;21.10;;;;;;;16.96;88.95;98623.72;4957068;28;20077;-69
2023/06/23 09:39:01;;;;;;;27.88;20.35;;;;;;;16.78;88.54;98622.31;4958755;28;20049;-69
2023/06/23 09:41:31;;;;;;;24.92;20.85;;;;;;;16.70;88.75;98625.88;4958543;28;20520;-69
2023/06/23 09:43:57;;;;;;;26.48;19.13;;;;;;;16.60;88.06;98622.47;4956927;28;20057;-70
2023/06/23 09:46:25;;;;;;;29.92;21.35;;;;;;;16.50;88.10;98625.38;4958596;28;20504;-68
2023/06/23 09:48:51;;;;;;;31.23;21.58;;;;;;;16.46;88.51;98632.13;4956684;28;20054;-70
2023/06/23 09:51:20;;;;;;;34.85;22.65;;;;;;;16.41;88.61;98631.78;4958426;28;20046;-69
2023/06/23 09:53:47;;;;;;;29.48;22.27;;;;;;;16.41;89.04;98639.00;4973550;28;20046;-70
2023/06/23 09:56:18;;;;;;;28.58;22.58;;;;;;;16.39;89.27;98641.03;4956981;28;20050;-68
2023/06/23 09:58:45;;;;;;;30.23;22.38;;;;;;;16.34;90.05;98636.19;4956187;28;20505;-68
2023/06/23 10:01:13;;;;;;;28.92;21.65;;;;;;;16.36;89.57;98641.38;4973260;28;20122;-68
2023/06/23 10:03:52;;;;;;;32.92;23.55;;;;;;;16.41;90.44;98645.22;4973369;28;20063;-69
2023/06/23 10:06:28;;;;;;;27.60;21.30;;;;;;;16.44;89.86;98646.75;4958281;28;20045;-69
2023/06/23 10:08:56;;;;;;;27.52;21.50;;;;;;;16.44;89.68;98649.44;4957238;28;20057;-70
2023/06/23 10:11:32;;;;;;;27.08;21.35;;;;;;;16.53;90.02;98643.03;4961281;28;20046;-69
2023/06/23 10:14:00;;;;;;;33.15;20.55;;;;;;;16.55;90.04;98655.31;4939716;28;20050;-68
2023/06/23 10:16:27;;;;;;;24.35;18.85;;;;;;;16.62;90.36;98648.25;4956999;28;20042;-69
2023/06/23 10:18:52;;;;;;;23.15;18.50;;;;;;;16.69;90.12;98648.41;4953540;28;20049;-69
2023/06/23 10:21:18;;;;;;;22.75;18.13;;;;;;;16.79;90.06;98657.13;4956302;28;20034;-68
2023/06/23 10:23:44;;;;;;;21.33;17.90;;;;;;;16.89;90.50;98657.75;4955480;28;20088;-69
2023/06/23 10:26:11;;;;;;;23.33;17.25;;;;;;;17.01;90.44;98660.91;4957495;28;20038;-69
2023/06/23 10:28:43;;;;;;;21.95;16.77;;;;;;;17.16;89.76;98656.47;4972368;28;20046;-68
2023/06/23 10:31:08;;;;;;;23.40;16.95;;;;;;;17.21;89.47;98651.41;4972075;28;20061;-69
2023/06/23 10:33:38;;;;;;;20.30;16.10;;;;;;;17.31;89.41;98654.72;4957545;28;20046;-70
2023/06/23 10:36:08;;;;;;;22.00;15.98;;;;;;;17.44;89.45;98656.84;4959313;28;20138;-74
2023/06/23 10:38:40;;;;;;;19.23;14.75;;;;;;;17.57;89.47;98635.53;4964651;28;20038;-74
2023/06/23 10:41:07;;;;;;;19.73;16.13;;;;;;;17.73;88.91;98638.13;4963650;28;20406;-76
2023/06/23 10:43:33;;;;;;;19.65;15.40;;;;;;;17.88;88.45;98643.59;4958582;28;20053;-72
2023/06/23 10:46:00;;;;;;;18.77;15.43;;;;;;;18.11;88.12;98640.88;4957163;28;20501;-72
2023/06/23 10:48:27;;;;;;;20.05;14.85;;;;;;;18.43;87.65;98639.72;4930102;28;20073;-72
2023/06/23 10:50:53;;;;;;;16.80;13.73;;;;;;;18.76;86.59;98630.28;4957375;28;20058;-72
2023/06/23 10:53:24;;;;;;;19.00;14.45;;;;;;;19.05;85.70;98634.03;4957522;28;20520;-72
2023/06/23 10:55:56;;;;;;;22.23;19.30;;;;;;;19.37;84.81;98636.28;4957706;28;20493;-71
2023/06/23 10:58:21;;;;;;;21.27;15.52;;;;;;;19.54;83.68;98635.06;4955115;28;20049;-71
2023/06/23 11:01:06;;;;;;;18.85;13.75;;;;;;;19.83;82.45;98639.53;4956214;28;20046;-71
2023/06/23 11:03:33;;;;;;;15.73;12.85;;;;;;;19.69;81.28;98643.13;4945696;28;20038;-72
2023/06/23 11:06:03;;;;;;;15.07;13.05;;;;;;;19.69;81.04;98632.31;4956276;28;20453;-72
2023/06/23 11:08:34;;;;;;;15.10;10.85;;;;;;;19.74;80.77;98639.84;4956007;28;20559;-73
2023/06/23 11:11:10;;;;;;;14.02;10.25;;;;;;;19.92;80.28;98643.78;4967320;28;20054;-71
2023/06/23 11:13:46;;;;;;;13.45;10.65;;;;;;;19.89;80.24;98635.19;4956047;28;20054;-72
2023/06/23 11:16:26;;;;;;;15.65;11.02;;;;;;;19.91;79.27;98639.41;4958238;28;20042;-74
2023/06/23 11:18:59;;;;;;;12.45;10.45;;;;;;;20.07;79.03;98634.75;4920735;28;20057;-74
2023/06/23 11:21:30;;;;;;;15.43;12.15;;;;;;;20.24;78.88;98633.44;4937791;28;20062;-72
2023/06/23 11:24:11;;;;;;;12.55;10.98;;;;;;;20.52;78.31;98645.16;4957766;28;20069;-69
2023/06/23 11:26:41;;;;;;;15.20;11.63;;;;;;;20.61;77.15;98643.13;4956181;28;20042;-72
2023/06/23 11:29:12;;;;;;;14.60;11.10;;;;;;;20.62;76.79;98651.06;4957330;28;20042;-71
2023/06/23 11:32:26;;;;;;;14.88;12.20;;;;;;;20.73;76.08;98654.25;4944909;28;20046;-71